createdAt,value
2022-10-15T00:00:08.463Z,23.20
2022-10-15T00:02:35.448Z,23.20
2022-10-15T00:05:02.155Z,23.20
2022-10-15T00:07:29.189Z,23.20
2022-10-15T00:09:56.239Z,23.20
2022-10-15T00:12:22.904Z,23.20
2022-10-15T00:14:49.584Z,23.20
2022-10-15T00:17:16.265Z,23.20
2022-10-15T00:19:42.960Z,23.20
2022-10-15T00:22:09.621Z,23.20
2022-10-15T00:24:37.235Z,23.20
2022-10-15T00:27:04.007Z,23.20
2022-10-15T00:29:30.680Z,23.20
2022-10-15T00:31:57.353Z,23.20
2022-10-15T00:34:24.037Z,23.20
2022-10-15T00:36:51.261Z,23.20
2022-10-15T00:39:18.271Z,23.20
2022-10-15T00:41:45.818Z,23.20
2022-10-15T00:44:21.741Z,23.20
2022-10-15T00:47:14.293Z,23.20
2022-10-15T00:49:45.854Z,23.20
2022-10-15T00:52:21.657Z,23.20
2022-10-15T00:54:56.831Z,23.20
2022-10-15T00:57:24.494Z,23.20
2022-10-15T00:59:54.713Z,23.20
2022-10-15T01:02:22.057Z,23.20
2022-10-15T01:04:49.468Z,23.20
2022-10-15T01:09:48.221Z,23.10
2022-10-15T01:12:43.243Z,23.10
2022-10-15T01:15:41.517Z,23.20
2022-10-15T01:18:14.312Z,23.10
2022-10-15T01:20:58.350Z,23.10
2022-10-15T01:23:46.259Z,23.20
2022-10-15T01:26:40.566Z,23.20
2022-10-15T01:29:32.677Z,23.10
2022-10-15T01:32:16.705Z,23.10
2022-10-15T01:35:10.441Z,23.10
2022-10-15T01:37:46.215Z,23.10
2022-10-15T01:40:20.801Z,23.10
2022-10-15T01:43:26.491Z,23.20
2022-10-15T01:45:58.183Z,23.20
2022-10-15T01:48:29.148Z,23.10
2022-10-15T01:51:00.627Z,23.10
2022-10-15T01:53:29.063Z,23.10
2022-10-15T01:56:03.449Z,23.10
2022-10-15T01:58:31.915Z,23.20
2022-10-15T02:00:59.239Z,23.20
2022-10-15T02:03:25.993Z,23.10
2022-10-15T02:06:02.925Z,23.10
2022-10-15T02:08:45.567Z,23.10
2022-10-15T02:11:15.723Z,23.10
2022-10-15T02:14:01.247Z,23.10
2022-10-15T02:16:37.015Z,23.10
2022-10-15T02:19:21.387Z,23.10
2022-10-15T02:22:16.061Z,23.10
2022-10-15T02:24:55.542Z,23.10
2022-10-15T02:27:23.453Z,23.10
2022-10-15T02:29:52.754Z,23.10
2022-10-15T02:32:22.244Z,23.10
2022-10-15T02:34:51.430Z,23.10
2022-10-15T02:37:22.733Z,23.10
2022-10-15T02:39:49.621Z,23.10
2022-10-15T02:42:18.760Z,23.10
2022-10-15T02:44:45.497Z,23.10
2022-10-15T02:47:12.553Z,23.10
2022-10-15T02:49:39.296Z,23.10
2022-10-15T02:52:06.085Z,23.10
2022-10-15T02:54:32.748Z,23.10
2022-10-15T02:56:59.401Z,23.10
2022-10-15T02:59:26.187Z,23.10
2022-10-15T03:01:52.922Z,23.10
2022-10-15T03:04:19.801Z,23.10
2022-10-15T03:06:46.498Z,23.10
2022-10-15T03:09:13.505Z,23.10
2022-10-15T03:11:40.228Z,23.10
2022-10-15T03:14:06.891Z,23.10
2022-10-15T03:16:33.576Z,23.10
2022-10-15T03:19:00.259Z,23.10
2022-10-15T03:21:28.674Z,23.10
2022-10-15T03:23:55.325Z,23.10
2022-10-15T03:26:21.989Z,23.10
2022-10-15T03:28:48.719Z,23.10
2022-10-15T03:31:15.463Z,23.10
2022-10-15T03:33:42.125Z,23.10
2022-10-15T03:36:09.237Z,23.10
2022-10-15T03:38:35.892Z,23.10
2022-10-15T03:41:02.607Z,23.10
2022-10-15T03:43:29.411Z,23.10
2022-10-15T03:45:56.115Z,23.10
2022-10-15T03:48:22.925Z,23.10
2022-10-15T03:50:49.600Z,23.10
2022-10-15T03:53:16.310Z,23.10
2022-10-15T03:55:43.028Z,23.10
2022-10-15T03:58:09.687Z,23.10
2022-10-15T04:00:58.781Z,23.10
2022-10-15T04:03:25.526Z,23.10
2022-10-15T04:05:54.198Z,23.10
2022-10-15T04:08:22.015Z,23.10
2022-10-15T04:10:50.578Z,23.10
2022-10-15T04:13:17.329Z,23.10
2022-10-15T04:15:44.034Z,23.10
2022-10-15T04:18:11.138Z,23.10
2022-10-15T04:20:38.256Z,23.10
2022-10-15T04:23:05.037Z,23.10
2022-10-15T04:25:31.683Z,23.10
2022-10-15T04:27:58.343Z,23.10
2022-10-15T04:30:25.024Z,23.10
2022-10-15T04:32:53.064Z,23.10
2022-10-15T04:35:19.895Z,23.10
2022-10-15T04:37:47.087Z,23.10
2022-10-15T04:40:13.887Z,23.10
2022-10-15T04:42:40.600Z,23.10
2022-10-15T04:45:07.981Z,23.10
2022-10-15T04:47:34.780Z,23.10
2022-10-15T04:50:01.515Z,23.10
2022-10-15T04:52:28.221Z,23.10
2022-10-15T04:54:54.873Z,23.10
2022-10-15T04:57:22.131Z,23.10
2022-10-15T04:59:52.549Z,23.10
2022-10-15T05:02:22.088Z,23.10
2022-10-15T05:04:49.186Z,23.10
2022-10-15T05:07:15.867Z,23.10
2022-10-15T05:09:46.149Z,23.10
2022-10-15T05:12:13.206Z,23.10
2022-10-15T05:14:39.932Z,23.10
2022-10-15T05:17:06.697Z,23.10
2022-10-15T05:19:33.351Z,23.10
2022-10-15T05:22:00.022Z,23.10
2022-10-15T05:24:26.734Z,23.10
2022-10-15T05:26:53.388Z,23.10
2022-10-15T05:29:20.116Z,23.10
2022-10-15T05:31:50.033Z,23.10
2022-10-15T05:34:16.677Z,23.10
2022-10-15T05:36:43.363Z,23.10
2022-10-15T05:39:12.141Z,23.10
2022-10-15T05:41:38.876Z,23.10
2022-10-15T05:44:05.611Z,23.10
2022-10-15T05:46:32.295Z,23.10
2022-10-15T05:48:59.079Z,23.10
2022-10-15T05:51:27.641Z,23.10
2022-10-15T05:53:56.132Z,23.10
2022-10-15T05:56:23.460Z,23.10
2022-10-15T05:58:50.386Z,23.10
2022-10-15T06:01:17.498Z,23.10
2022-10-15T06:03:44.482Z,23.10
2022-10-15T06:06:20.070Z,23.10
2022-10-15T06:08:47.678Z,23.10
2022-10-15T06:11:14.356Z,23.10
2022-10-15T06:13:42.498Z,23.10
2022-10-15T06:16:10.054Z,23.10
2022-10-15T06:18:38.565Z,23.10
2022-10-15T06:21:06.630Z,23.10
2022-10-15T06:23:33.839Z,23.10
2022-10-15T06:26:08.201Z,23.10
2022-10-15T06:28:35.849Z,23.10
2022-10-15T06:31:02.877Z,23.10
2022-10-15T06:33:29.632Z,23.10
2022-10-15T06:36:00.264Z,23.10
2022-10-15T06:38:27.210Z,23.10
2022-10-15T06:40:54.075Z,23.10
2022-10-15T06:43:20.791Z,23.10
2022-10-15T06:45:47.514Z,23.10
2022-10-15T06:48:14.166Z,23.10
2022-10-15T06:50:40.914Z,23.10
2022-10-15T06:53:08.055Z,23.10
2022-10-15T06:55:35.329Z,23.10
2022-10-15T06:58:02.084Z,23.20
2022-10-15T07:00:28.941Z,23.10
2022-10-15T07:02:55.753Z,23.10
2022-10-15T07:05:22.705Z,23.10
2022-10-15T07:07:56.651Z,23.10
2022-10-15T07:10:24.690Z,23.10
2022-10-15T07:12:51.487Z,23.10
2022-10-15T07:15:19.201Z,23.20
2022-10-15T07:17:56.638Z,23.10
2022-10-15T07:20:24.447Z,23.10
2022-10-15T07:22:55.620Z,23.10
2022-10-15T07:25:22.281Z,23.10
2022-10-15T07:27:48.936Z,23.10
2022-10-15T07:30:15.669Z,23.20
2022-10-15T07:32:45.577Z,23.20
2022-10-15T07:35:13.582Z,23.10
2022-10-15T07:37:40.722Z,23.10
2022-10-15T07:40:07.949Z,23.10
2022-10-15T07:42:34.752Z,23.20
2022-10-15T07:45:01.469Z,23.20
2022-10-15T07:47:28.350Z,23.20
2022-10-15T07:49:55.177Z,23.20
2022-10-15T07:52:22.140Z,23.20
2022-10-15T07:54:49.033Z,23.20
2022-10-15T07:57:16.427Z,23.20
2022-10-15T07:59:43.151Z,23.20
2022-10-15T08:02:16.817Z,23.20
2022-10-15T08:04:43.833Z,23.20
2022-10-15T08:07:10.613Z,23.20
2022-10-15T08:09:37.594Z,23.20
2022-10-15T08:12:06.201Z,23.20
2022-10-15T08:14:34.677Z,23.20
2022-10-15T08:17:02.952Z,23.20
2022-10-15T08:19:29.723Z,23.20
2022-10-15T08:21:56.904Z,23.20
2022-10-15T08:24:23.902Z,23.20
2022-10-15T08:26:50.559Z,23.20
2022-10-15T08:29:17.211Z,23.20
2022-10-15T08:31:43.960Z,23.20
2022-10-15T08:34:10.721Z,23.20
2022-10-15T08:36:37.380Z,23.20
2022-10-15T08:39:07.176Z,23.20
2022-10-15T08:41:40.026Z,23.20
2022-10-15T08:44:13.373Z,23.20
2022-10-15T08:46:45.679Z,23.20
2022-10-15T08:49:29.650Z,23.20
2022-10-15T08:52:14.544Z,23.20
2022-10-15T08:54:41.344Z,23.20
2022-10-15T08:57:39.640Z,23.20
2022-10-15T09:00:33.329Z,23.20
2022-10-15T09:03:26.201Z,23.20
2022-10-15T09:05:58.694Z,23.20
2022-10-15T09:08:42.637Z,23.20
2022-10-15T09:11:37.528Z,23.20
2022-10-15T09:14:09.103Z,23.20
2022-10-15T09:16:38.989Z,23.20
2022-10-15T09:19:15.291Z,23.20
2022-10-15T09:21:42.834Z,23.20
2022-10-15T09:24:13.177Z,23.20
2022-10-15T09:26:58.746Z,23.20
2022-10-15T09:29:32.795Z,23.20
2022-10-15T09:32:19.115Z,23.20
2022-10-15T09:34:56.621Z,23.20
2022-10-15T09:37:36.409Z,23.30
2022-10-15T09:40:32.736Z,23.40
2022-10-15T09:43:01.411Z,23.30
2022-10-15T09:45:28.233Z,23.40
2022-10-15T09:48:00.358Z,23.40
2022-10-15T09:50:39.565Z,23.40
2022-10-15T09:53:27.491Z,23.40
2022-10-15T09:56:15.614Z,23.50
2022-10-15T09:58:48.453Z,23.50
2022-10-15T10:01:23.256Z,23.50
2022-10-15T10:04:25.280Z,23.60
2022-10-15T10:06:55.387Z,23.60
2022-10-15T10:09:38.177Z,23.60
2022-10-15T10:12:08.279Z,23.60
2022-10-15T10:14:54.341Z,23.60
2022-10-15T10:17:23.581Z,23.60
2022-10-15T10:20:08.748Z,23.70
2022-10-15T10:22:51.225Z,23.60
2022-10-15T10:25:29.727Z,23.70
2022-10-15T10:28:03.887Z,23.70
2022-10-15T10:30:39.476Z,23.60
2022-10-15T10:33:06.884Z,23.70
2022-10-15T10:35:50.523Z,23.60
2022-10-15T10:38:27.327Z,23.60
2022-10-15T10:40:59.111Z,23.60
2022-10-15T10:43:28.183Z,23.60
2022-10-15T10:46:04.268Z,23.60
2022-10-15T10:48:46.214Z,23.60
2022-10-15T10:51:21.795Z,23.60
2022-10-15T10:53:50.065Z,23.60
2022-10-15T10:56:27.926Z,23.60
2022-10-15T10:59:16.403Z,23.60
2022-10-15T11:01:43.232Z,23.60
2022-10-15T11:04:19.528Z,23.50
2022-10-15T11:06:59.036Z,23.50
2022-10-15T11:09:53.774Z,23.50
2022-10-15T11:12:40.815Z,23.50
2022-10-15T11:15:36.700Z,23.50
2022-10-15T11:18:19.862Z,23.50
2022-10-15T11:20:58.699Z,23.50
2022-10-15T11:23:46.179Z,23.50
2022-10-15T11:27:06.539Z,23.50
2022-10-15T11:29:41.776Z,23.50
2022-10-15T11:33:01.871Z,23.50
2022-10-15T11:35:48.493Z,23.50
2022-10-15T11:38:20.467Z,23.50
2022-10-15T11:40:59.248Z,23.50
2022-10-15T11:43:54.982Z,23.50
2022-10-15T11:46:46.473Z,23.50
2022-10-15T11:49:44.031Z,23.40
2022-10-15T11:52:22.918Z,23.40
2022-10-15T11:55:14.106Z,23.50
2022-10-15T11:57:43.222Z,23.40
2022-10-15T12:00:30.205Z,23.40
2022-10-15T12:03:22.442Z,23.40
2022-10-15T12:05:56.960Z,23.50
2022-10-15T12:08:28.049Z,23.50
2022-10-15T12:11:40.881Z,23.50
2022-10-15T12:14:28.997Z,23.50
2022-10-15T12:17:27.552Z,23.50
2022-10-15T12:19:56.283Z,23.50
2022-10-15T12:22:35.136Z,23.50
2022-10-15T12:25:02.156Z,23.50
2022-10-15T12:27:34.533Z,23.50
2022-10-15T12:30:04.164Z,23.50
2022-10-15T12:32:36.664Z,23.50
2022-10-15T12:35:07.068Z,23.50
2022-10-15T12:37:38.328Z,23.50
2022-10-15T12:40:28.295Z,23.50
2022-10-15T12:43:12.103Z,23.50
2022-10-15T12:45:48.585Z,23.50
2022-10-15T12:48:15.209Z,23.50
2022-10-15T12:50:42.461Z,23.50
2022-10-15T12:53:45.391Z,23.50
2022-10-15T12:56:17.938Z,23.50
2022-10-15T12:58:51.074Z,23.50
2022-10-15T13:01:20.625Z,23.50
2022-10-15T13:03:52.836Z,23.50
2022-10-15T13:06:22.493Z,23.50
2022-10-15T13:09:05.068Z,23.50
2022-10-15T13:11:37.020Z,23.50
2022-10-15T13:14:12.377Z,23.50
2022-10-15T13:16:47.537Z,23.50
2022-10-15T13:19:22.872Z,23.50
2022-10-15T13:22:01.111Z,23.50
2022-10-15T13:24:30.423Z,23.50
2022-10-15T13:27:00.560Z,23.50
2022-10-15T13:29:28.854Z,23.60
2022-10-15T13:31:57.539Z,23.60
2022-10-15T13:34:36.603Z,23.60
2022-10-15T13:37:04.721Z,23.60
2022-10-15T13:39:35.250Z,23.60
2022-10-15T13:42:18.085Z,23.60
2022-10-15T13:45:13.840Z,23.60
2022-10-15T13:47:46.638Z,23.60
2022-10-15T13:50:24.528Z,23.60
2022-10-15T13:53:09.060Z,23.60
2022-10-15T13:55:43.981Z,23.70
2022-10-15T13:58:26.458Z,23.70
2022-10-15T14:01:21.227Z,23.70
2022-10-15T14:03:50.076Z,23.70
2022-10-15T14:06:31.314Z,23.70
2022-10-15T14:09:05.418Z,23.70
2022-10-15T14:11:34.224Z,23.70
2022-10-15T14:14:00.937Z,23.70
2022-10-15T14:16:39.492Z,23.70
2022-10-15T14:19:06.587Z,23.70
2022-10-15T14:21:34.668Z,23.70
2022-10-15T14:24:10.338Z,23.80
2022-10-15T14:26:39.121Z,23.70
2022-10-15T14:29:07.494Z,23.70
2022-10-15T14:31:40.600Z,23.70
2022-10-15T14:34:35.194Z,23.80
2022-10-15T14:37:29.189Z,23.80
2022-10-15T14:40:15.348Z,23.80
2022-10-15T14:42:48.697Z,23.80
2022-10-15T14:45:18.135Z,23.70
2022-10-15T14:47:48.809Z,23.80
2022-10-15T14:50:17.019Z,23.80
2022-10-15T14:52:50.410Z,23.70
2022-10-15T14:55:33.097Z,23.80
2022-10-15T14:58:06.700Z,23.80
2022-10-15T15:00:45.074Z,23.80
2022-10-15T15:03:16.366Z,23.80
2022-10-15T15:05:49.322Z,23.80
2022-10-15T15:08:16.492Z,23.80
2022-10-15T15:10:44.619Z,23.80
2022-10-15T15:13:16.730Z,23.80
2022-10-15T15:15:43.420Z,23.80
2022-10-15T15:18:11.091Z,23.80
2022-10-15T15:20:38.554Z,23.80
2022-10-15T15:23:05.462Z,23.80
2022-10-15T15:25:36.984Z,23.80
2022-10-15T15:28:04.687Z,23.80
2022-10-15T15:30:34.249Z,23.80
2022-10-15T15:33:01.142Z,23.80
2022-10-15T15:35:52.742Z,23.80
2022-10-15T15:38:21.606Z,23.80
2022-10-15T15:40:49.436Z,23.80
2022-10-15T15:43:18.833Z,23.80
2022-10-15T15:45:46.846Z,23.80
2022-10-15T15:48:14.209Z,23.80
2022-10-15T15:50:40.960Z,23.80
2022-10-15T15:53:07.656Z,23.80
2022-10-15T15:55:34.584Z,23.80
2022-10-15T15:58:01.266Z,23.80
2022-10-15T16:00:28.332Z,23.80
2022-10-15T16:02:57.865Z,23.80
2022-10-15T16:05:25.012Z,23.80
2022-10-15T16:07:51.672Z,23.80
2022-10-15T16:10:18.640Z,23.80
2022-10-15T16:12:45.379Z,23.80
2022-10-15T16:15:14.682Z,23.80
2022-10-15T16:17:42.672Z,23.80
2022-10-15T16:20:10.347Z,23.80
2022-10-15T16:22:37.077Z,23.80
2022-10-15T16:25:04.060Z,23.80
2022-10-15T16:27:30.868Z,23.80
2022-10-15T16:29:57.514Z,23.80
2022-10-15T16:32:24.932Z,23.80
2022-10-15T16:34:51.684Z,23.80
2022-10-15T16:37:18.501Z,23.90
2022-10-15T16:39:45.162Z,23.90
2022-10-15T16:42:13.643Z,23.90
2022-10-15T16:44:40.340Z,23.90
2022-10-15T16:47:07.152Z,23.90
2022-10-15T16:49:33.812Z,23.90
2022-10-15T16:52:00.499Z,23.90
2022-10-15T16:54:27.172Z,24.00
2022-10-15T16:56:54.413Z,24.00
2022-10-15T17:03:02.714Z,24.00
2022-10-15T17:05:31.548Z,24.00
2022-10-15T17:07:58.212Z,24.00
2022-10-15T17:10:25.790Z,24.00
2022-10-15T17:12:53.189Z,24.00
2022-10-15T17:15:19.860Z,24.00
2022-10-15T17:17:46.728Z,24.00
2022-10-15T17:20:13.416Z,24.00
2022-10-15T17:22:40.096Z,24.00
2022-10-15T17:25:06.953Z,24.00
2022-10-15T17:27:35.631Z,24.10
2022-10-15T17:30:02.304Z,24.10
2022-10-15T17:32:28.956Z,24.10
2022-10-15T17:34:58.172Z,24.10
2022-10-15T17:37:26.873Z,24.10
2022-10-15T17:39:53.620Z,24.10
2022-10-15T17:42:21.735Z,24.10
2022-10-15T17:44:48.851Z,24.10
2022-10-15T17:47:15.500Z,24.10
2022-10-15T17:49:42.539Z,24.10
2022-10-15T17:52:09.852Z,24.10
2022-10-15T17:54:36.528Z,24.10
2022-10-15T17:57:03.202Z,24.10
2022-10-15T17:59:29.979Z,24.20
2022-10-15T18:01:59.833Z,24.10
2022-10-15T18:04:28.455Z,24.10
2022-10-15T18:06:55.156Z,24.10
2022-10-15T18:09:21.857Z,24.10
2022-10-15T18:11:49.031Z,24.10
2022-10-15T18:14:15.886Z,24.10
2022-10-15T18:16:43.309Z,24.20
2022-10-15T18:19:10.344Z,24.10
2022-10-15T18:21:37.116Z,24.20
2022-10-15T18:24:03.956Z,24.10
2022-10-15T18:26:30.684Z,24.10
2022-10-15T18:28:57.446Z,24.10
2022-10-15T18:31:26.157Z,24.10
2022-10-15T18:33:56.001Z,24.10
2022-10-15T18:36:24.443Z,24.10
2022-10-15T18:38:51.564Z,24.10
2022-10-15T18:41:23.896Z,24.10
2022-10-15T18:44:01.543Z,24.10
2022-10-15T18:46:30.562Z,24.10
2022-10-15T18:48:58.234Z,24.10
2022-10-15T18:51:25.558Z,24.10
2022-10-15T18:53:52.495Z,24.10
2022-10-15T18:56:19.331Z,24.10
2022-10-15T18:58:46.284Z,24.10
2022-10-15T19:01:24.795Z,24.10
2022-10-15T19:03:52.753Z,24.10
2022-10-15T19:06:23.362Z,24.10
2022-10-15T19:08:50.313Z,24.10
2022-10-15T19:11:17.776Z,24.10
2022-10-15T19:13:44.585Z,24.10
2022-10-15T19:16:11.880Z,24.10
2022-10-15T19:18:38.776Z,24.10
2022-10-15T19:21:06.226Z,24.10
2022-10-15T19:23:34.092Z,24.10
2022-10-15T19:26:01.406Z,24.10
2022-10-15T19:28:29.057Z,24.10
2022-10-15T19:30:57.745Z,24.10
2022-10-15T19:33:25.699Z,24.10
2022-10-15T19:35:53.117Z,24.10
2022-10-15T19:38:20.071Z,24.10
2022-10-15T19:40:49.415Z,24.10
2022-10-15T19:43:18.608Z,24.10
2022-10-15T19:45:46.579Z,24.10
2022-10-15T19:48:16.080Z,24.10
2022-10-15T19:50:44.917Z,24.10
2022-10-15T19:53:16.748Z,24.10
2022-10-15T19:55:44.722Z,24.10
2022-10-15T19:58:11.605Z,24.10
2022-10-15T20:00:38.295Z,24.10
2022-10-15T20:03:05.029Z,24.00
2022-10-15T20:05:31.787Z,24.10
2022-10-15T20:07:58.639Z,24.10
2022-10-15T20:10:26.363Z,24.00
2022-10-15T20:12:53.695Z,24.00
2022-10-15T20:15:20.658Z,24.00
2022-10-15T20:17:48.008Z,23.90
2022-10-15T20:20:15.200Z,23.80
2022-10-15T20:22:42.060Z,23.70
2022-10-15T20:25:09.115Z,23.50
2022-10-15T20:27:35.774Z,23.40
2022-10-15T20:30:02.776Z,23.30
2022-10-15T20:32:34.683Z,23.30
2022-10-15T20:35:03.192Z,23.20
2022-10-15T20:37:29.868Z,23.20
2022-10-15T20:42:28.407Z,23.10
2022-10-15T20:44:55.301Z,23.00
2022-10-15T20:47:23.365Z,22.90
2022-10-15T20:49:53.192Z,22.90
2022-10-15T20:52:21.681Z,22.90
2022-10-15T20:54:48.421Z,22.90
2022-10-15T20:57:15.198Z,23.00
2022-10-15T20:59:41.859Z,23.00
2022-10-15T21:02:08.516Z,23.10
2022-10-15T21:04:35.227Z,23.10
2022-10-15T21:07:01.904Z,23.10
2022-10-15T21:09:28.577Z,23.20
2022-10-15T21:11:55.308Z,23.20
2022-10-15T21:14:22.001Z,23.20
2022-10-15T21:16:48.671Z,23.20
2022-10-15T21:19:15.534Z,23.20
2022-10-15T21:21:42.192Z,23.20
2022-10-15T21:24:08.866Z,23.20
2022-10-15T21:26:35.535Z,23.30
2022-10-15T21:29:02.280Z,23.30
2022-10-15T21:31:29.269Z,23.30
2022-10-15T21:33:56.180Z,23.30
2022-10-15T21:36:27.831Z,23.30
2022-10-15T21:38:55.537Z,23.30
2022-10-15T21:41:23.510Z,23.30
2022-10-15T21:46:22.503Z,23.30
2022-10-15T21:48:49.647Z,23.30
2022-10-15T21:51:23.717Z,23.30
2022-10-15T21:53:50.542Z,23.40
2022-10-15T21:56:17.725Z,23.30
2022-10-15T21:58:45.048Z,23.30
2022-10-15T22:01:17.093Z,23.30
2022-10-15T22:03:46.546Z,23.30
2022-10-15T22:06:13.971Z,23.30
2022-10-15T22:08:41.897Z,23.30
2022-10-15T22:11:13.270Z,23.30
2022-10-15T22:13:41.196Z,23.30
2022-10-15T22:16:08.506Z,23.30
2022-10-15T22:18:35.487Z,23.30
2022-10-15T22:21:15.570Z,23.30
2022-10-15T22:23:53.781Z,23.30
2022-10-15T22:26:23.204Z,23.30
2022-10-15T22:28:52.880Z,23.30
2022-10-15T22:31:19.607Z,23.30
2022-10-15T22:33:47.117Z,23.30
2022-10-15T22:36:22.205Z,23.30
2022-10-15T22:38:53.649Z,23.30
2022-10-15T22:41:20.350Z,23.30
2022-10-15T22:43:47.038Z,23.30
2022-10-15T22:46:14.252Z,23.30
2022-10-15T22:48:42.292Z,23.20
2022-10-15T22:51:11.641Z,23.30
2022-10-15T22:53:38.369Z,23.20
2022-10-15T22:56:07.913Z,23.30
2022-10-15T22:58:35.321Z,23.20
2022-10-15T23:01:12.923Z,23.20
2022-10-15T23:03:41.282Z,23.20
2022-10-15T23:06:07.986Z,23.20
2022-10-15T23:08:35.812Z,23.20
2022-10-15T23:11:09.964Z,23.20
2022-10-15T23:13:38.213Z,23.20
2022-10-15T23:16:11.921Z,23.20
2022-10-15T23:18:38.842Z,23.20
2022-10-15T23:21:10.265Z,23.20
2022-10-15T23:23:36.940Z,23.20
2022-10-15T23:26:03.680Z,23.20
2022-10-15T23:28:30.401Z,23.20
2022-10-15T23:30:57.259Z,23.20
2022-10-15T23:33:24.125Z,23.10
2022-10-15T23:36:04.588Z,23.10
2022-10-15T23:38:31.407Z,23.20
2022-10-15T23:41:07.116Z,23.10
2022-10-15T23:43:34.321Z,23.10
2022-10-15T23:46:01.416Z,23.10
2022-10-15T23:48:28.942Z,23.10
2022-10-15T23:50:59.397Z,23.10
2022-10-15T23:53:29.366Z,23.10
2022-10-15T23:55:56.087Z,23.10
2022-10-15T23:58:22.732Z,23.10
